createdAt,value
2022-08-07T00:00:42.800Z,14.71
2022-08-07T00:03:13.099Z,14.67
2022-08-07T00:05:58.935Z,14.68
2022-08-07T00:08:44.272Z,14.67
2022-08-07T00:11:20.025Z,14.67
2022-08-07T00:13:58.634Z,14.65
2022-08-07T00:16:31.115Z,14.68
2022-08-07T00:19:05.971Z,14.75
2022-08-07T00:21:57.361Z,14.76
2022-08-07T00:24:21.864Z,14.73
2022-08-07T00:26:58.884Z,14.72
2022-08-07T00:29:37.857Z,14.70
2022-08-07T00:32:14.065Z,14.69
2022-08-07T00:34:42.676Z,14.69
2022-08-07T00:37:13.387Z,14.66
2022-08-07T00:39:45.228Z,14.62
2022-08-07T00:42:29.006Z,14.59
2022-08-07T00:44:57.386Z,14.63
2022-08-07T00:48:08.692Z,14.64
2022-08-07T00:50:33.087Z,14.57
2022-08-07T00:53:05.523Z,14.60
2022-08-07T00:56:03.233Z,14.62
2022-08-07T00:58:41.792Z,14.63
2022-08-07T01:01:15.045Z,14.69
2022-08-07T01:03:55.928Z,14.71
2022-08-07T01:06:28.556Z,14.70
2022-08-07T01:08:58.411Z,14.66
2022-08-07T01:12:27.671Z,14.63
2022-08-07T01:14:16.760Z,14.64
2022-08-07T01:16:52.259Z,14.66
2022-08-07T01:19:25.761Z,14.62
2022-08-07T01:22:16.206Z,14.65
2022-08-07T01:24:51.436Z,14.40
2022-08-07T01:27:20.131Z,14.58
2022-08-07T01:30:00.698Z,14.45
2022-08-07T01:32:29.502Z,14.61
2022-08-07T01:34:58.777Z,14.63
2022-08-07T01:37:29.453Z,14.64
2022-08-07T01:40:07.790Z,14.62
2022-08-07T01:42:57.251Z,14.52
2022-08-07T01:45:40.895Z,14.44
2022-08-07T01:48:29.775Z,14.40
2022-08-07T01:52:02.765Z,14.39
2022-08-07T01:54:08.894Z,14.42
2022-08-07T01:56:49.263Z,14.42
2022-08-07T01:59:31.021Z,14.46
2022-08-07T02:02:12.645Z,14.42
2022-08-07T02:05:06.503Z,14.43
2022-08-07T02:07:50.103Z,14.45
2022-08-07T02:10:27.016Z,14.45
2022-08-07T02:13:01.861Z,14.48
2022-08-07T02:15:39.964Z,14.47
2022-08-07T02:18:13.087Z,14.46
2022-08-07T02:20:48.738Z,14.46
2022-08-07T02:23:26.481Z,14.28
2022-08-07T02:26:31.144Z,14.46
2022-08-07T02:29:04.504Z,14.45
2022-08-07T02:31:33.302Z,14.35
2022-08-07T02:34:11.569Z,14.39
2022-08-07T02:36:51.912Z,14.34
2022-08-07T02:39:43.030Z,14.33
2022-08-07T02:42:16.353Z,14.32
2022-08-07T02:44:49.783Z,14.26
2022-08-07T02:47:23.951Z,14.24
2022-08-07T02:50:07.668Z,14.25
2022-08-07T02:52:48.699Z,14.28
2022-08-07T02:55:27.533Z,14.25
2022-08-07T02:58:04.033Z,14.20
2022-08-07T03:00:47.119Z,14.19
2022-08-07T03:03:22.659Z,14.16
2022-08-07T03:06:06.582Z,14.13
2022-08-07T03:08:46.281Z,14.11
2022-08-07T03:11:15.958Z,14.13
2022-08-07T03:13:49.654Z,14.16
2022-08-07T03:16:22.828Z,14.00
2022-08-07T03:18:57.877Z,14.17
2022-08-07T03:21:28.398Z,14.21
2022-08-07T03:24:20.022Z,14.23
2022-08-07T03:26:59.173Z,14.21
2022-08-07T03:29:38.659Z,14.21
2022-08-07T03:32:17.078Z,14.23
2022-08-07T03:35:00.829Z,14.24
2022-08-07T03:37:46.294Z,14.26
2022-08-07T03:40:27.495Z,14.24
2022-08-07T03:43:01.608Z,14.25
2022-08-07T03:45:43.606Z,14.25
2022-08-07T03:48:17.182Z,14.23
2022-08-07T03:50:55.734Z,14.25
2022-08-07T03:53:50.228Z,14.25
2022-08-07T03:56:32.835Z,14.23
2022-08-07T03:59:08.891Z,14.23
2022-08-07T04:01:45.514Z,14.25
2022-08-07T04:04:18.112Z,14.25
2022-08-07T04:06:51.041Z,14.22
2022-08-07T04:09:23.313Z,14.20
2022-08-07T04:12:27.804Z,14.25
2022-08-07T04:14:46.289Z,14.31
2022-08-07T04:17:21.588Z,14.34
2022-08-07T04:20:01.811Z,14.36
2022-08-07T04:22:33.428Z,14.37
2022-08-07T04:25:12.175Z,14.40
2022-08-07T04:27:44.197Z,14.40
2022-08-07T04:30:21.432Z,14.42
2022-08-07T04:33:14.045Z,14.42
2022-08-07T04:35:50.491Z,14.44
2022-08-07T04:38:21.794Z,14.36
2022-08-07T04:40:52.796Z,14.55
2022-08-07T04:44:12.906Z,14.60
2022-08-07T04:46:59.374Z,14.60
2022-08-07T04:49:57.366Z,14.62
2022-08-07T04:52:35.359Z,14.63
2022-08-07T04:55:15.526Z,14.59
2022-08-07T04:58:42.276Z,14.69
2022-08-07T05:01:04.844Z,14.72
2022-08-07T05:04:06.866Z,14.79
2022-08-07T05:06:51.607Z,14.84
2022-08-07T05:09:43.060Z,14.86
2022-08-07T05:12:27.092Z,14.85
2022-08-07T05:15:21.708Z,14.88
2022-08-07T05:18:10.522Z,14.92
2022-08-07T05:20:44.797Z,15.66
2022-08-07T05:23:18.979Z,17.36
2022-08-07T05:26:10.797Z,18.76
2022-08-07T05:28:40.801Z,19.67
2022-08-07T05:31:17.882Z,20.11
2022-08-07T05:34:00.957Z,20.54
2022-08-07T05:36:39.515Z,20.88
2022-08-07T05:40:06.323Z,21.33
2022-08-07T05:42:12.489Z,21.33
2022-08-07T05:44:52.729Z,21.50
2022-08-07T05:47:38.442Z,21.26
2022-08-07T05:50:21.866Z,21.44
2022-08-07T05:52:58.201Z,21.76
2022-08-07T05:56:03.030Z,22.06
2022-08-07T05:58:22.104Z,21.91
2022-08-07T06:01:12.169Z,21.82
2022-08-07T06:03:56.456Z,21.95
2022-08-07T06:06:37.338Z,22.05
2022-08-07T06:09:16.685Z,21.94
2022-08-07T06:11:51.811Z,21.90
2022-08-07T06:14:28.890Z,22.04
2022-08-07T06:17:07.202Z,21.87
2022-08-07T06:19:58.314Z,21.95
2022-08-07T06:22:36.915Z,22.01
2022-08-07T06:25:21.464Z,21.62
2022-08-07T06:28:04.053Z,21.25
2022-08-07T06:30:37.946Z,20.92
2022-08-07T06:33:16.141Z,20.66
2022-08-07T06:36:06.863Z,20.50
2022-08-07T06:38:37.791Z,19.97
2022-08-07T06:41:13.075Z,19.69
2022-08-07T06:43:59.464Z,19.46
2022-08-07T06:46:39.938Z,19.26
2022-08-07T06:49:08.307Z,19.20
2022-08-07T06:51:49.433Z,19.16
2022-08-07T06:55:28.523Z,19.16
2022-08-07T06:57:10.336Z,19.19
2022-08-07T07:00:12.029Z,19.29
2022-08-07T07:02:53.741Z,19.34
2022-08-07T07:06:03.075Z,19.42
2022-08-07T07:08:18.591Z,19.57
2022-08-07T07:10:57.766Z,19.65
2022-08-07T07:13:43.574Z,19.56
2022-08-07T07:16:30.731Z,19.49
2022-08-07T07:19:55.948Z,19.33
2022-08-07T07:22:12.132Z,19.37
2022-08-07T07:25:02.724Z,19.41
2022-08-07T07:28:01.900Z,19.52
2022-08-07T07:30:39.997Z,19.53
2022-08-07T07:33:13.669Z,19.47
2022-08-07T07:36:04.819Z,19.43
2022-08-07T07:38:36.158Z,19.47
2022-08-07T07:41:08.799Z,19.55
2022-08-07T07:44:13.600Z,19.58
2022-08-07T07:46:37.326Z,19.54
2022-08-07T07:50:34.516Z,19.50
2022-08-07T07:52:18.098Z,19.50
2022-08-07T07:54:52.979Z,19.51
2022-08-07T07:57:44.090Z,19.49
2022-08-07T08:00:21.076Z,19.53
2022-08-07T08:03:04.548Z,19.58
2022-08-07T08:05:56.458Z,19.52
2022-08-07T08:08:35.374Z,19.50
2022-08-07T08:11:16.457Z,19.62
2022-08-07T08:13:58.735Z,19.64
2022-08-07T08:16:38.184Z,19.66
2022-08-07T08:20:15.692Z,19.69
2022-08-07T08:22:54.310Z,19.65
2022-08-07T08:25:49.040Z,19.80
2022-08-07T08:28:24.018Z,19.93
2022-08-07T08:31:14.713Z,19.99
2022-08-07T08:33:55.327Z,20.07
2022-08-07T08:36:29.728Z,20.21
2022-08-07T08:39:01.850Z,20.33
2022-08-07T08:41:57.037Z,20.38
2022-08-07T08:44:31.551Z,20.45
2022-08-07T08:47:11.421Z,20.45
2022-08-07T08:50:05.715Z,20.48
2022-08-07T08:52:54.293Z,20.63
2022-08-07T08:55:54.914Z,20.87
2022-08-07T08:58:28.877Z,20.97
2022-08-07T09:01:14.540Z,20.93
2022-08-07T09:03:52.868Z,20.95
2022-08-07T09:06:33.955Z,21.07
2022-08-07T09:09:13.522Z,21.15
2022-08-07T09:12:19.976Z,21.15
2022-08-07T09:16:22.154Z,21.08
2022-08-07T09:17:59.397Z,21.16
2022-08-07T09:20:57.726Z,21.19
2022-08-07T09:24:32.113Z,21.21
2022-08-07T09:26:32.422Z,21.38
2022-08-07T09:30:04.427Z,21.52
2022-08-07T09:32:17.187Z,21.56
2022-08-07T09:34:53.652Z,21.42
2022-08-07T09:37:48.559Z,21.29
2022-08-07T09:40:27.173Z,21.30
2022-08-07T09:43:01.859Z,21.45
2022-08-07T09:47:42.689Z,21.68
2022-08-07T09:48:55.896Z,21.88
2022-08-07T09:52:10.121Z,22.08
2022-08-07T09:54:40.223Z,22.17
2022-08-07T09:58:01.155Z,22.32
2022-08-07T10:00:42.624Z,22.33
2022-08-07T10:04:05.253Z,22.51
2022-08-07T10:07:03.247Z,22.61
2022-08-07T10:10:03.011Z,22.70
2022-08-07T10:12:55.224Z,22.78
2022-08-07T10:15:50.714Z,22.91
2022-08-07T10:18:53.835Z,23.05
2022-08-07T10:22:16.332Z,23.13
2022-08-07T10:25:08.457Z,23.42
2022-08-07T10:27:51.356Z,23.53
2022-08-07T10:30:37.657Z,23.58
2022-08-07T10:34:05.193Z,23.73
2022-08-07T10:36:29.934Z,23.93
2022-08-07T10:39:11.840Z,24.02
2022-08-07T10:41:53.863Z,24.13
2022-08-07T10:44:45.258Z,24.10
2022-08-07T10:47:26.615Z,24.21
2022-08-07T10:50:07.080Z,24.21
2022-08-07T10:52:51.456Z,24.40
2022-08-07T10:55:36.876Z,24.37
2022-08-07T10:58:25.055Z,24.07
2022-08-07T11:01:15.138Z,23.77
2022-08-07T11:04:23.343Z,23.56
2022-08-07T11:07:56.879Z,23.42
2022-08-07T11:10:20.686Z,23.28
2022-08-07T11:13:01.706Z,23.14
2022-08-07T11:15:35.510Z,23.09
2022-08-07T11:18:14.505Z,23.15
2022-08-07T11:20:53.103Z,23.19
2022-08-07T11:23:30.740Z,23.29
2022-08-07T11:26:14.405Z,23.44
2022-08-07T11:28:55.180Z,23.51
2022-08-07T11:31:33.332Z,23.59
2022-08-07T11:34:10.980Z,23.49
2022-08-07T11:36:49.632Z,23.38
2022-08-07T11:39:59.346Z,23.29
2022-08-07T11:42:29.551Z,23.12
2022-08-07T11:45:20.749Z,22.94
2022-08-07T11:48:30.000Z,22.87
2022-08-07T11:51:42.039Z,22.79
2022-08-07T11:54:31.510Z,22.77
2022-08-07T11:57:18.792Z,22.67
2022-08-07T12:00:10.171Z,22.64
2022-08-07T12:03:07.937Z,22.50
2022-08-07T12:06:37.461Z,22.31
2022-08-07T12:09:07.502Z,22.25
2022-08-07T12:12:09.597Z,22.28
2022-08-07T12:15:01.653Z,22.62
2022-08-07T12:22:38.781Z,24.18
2022-08-07T12:26:06.190Z,24.46
2022-08-07T12:32:33.741Z,23.86
2022-08-07T12:35:05.749Z,23.76
2022-08-07T12:38:09.823Z,23.69
2022-08-07T12:40:47.467Z,23.60
2022-08-07T12:44:02.861Z,23.72
2022-08-07T12:46:32.274Z,23.59
2022-08-07T12:49:39.729Z,23.47
2022-08-07T12:52:14.443Z,23.49
2022-08-07T12:55:03.767Z,23.51
2022-08-07T12:57:38.802Z,23.43
2022-08-07T13:00:30.956Z,23.18
2022-08-07T13:03:13.044Z,23.17
2022-08-07T13:06:17.273Z,23.40
2022-08-07T13:09:33.399Z,23.71
2022-08-07T13:12:02.525Z,23.51
2022-08-07T13:14:50.851Z,23.37
2022-08-07T13:17:42.539Z,23.55
2022-08-07T13:20:17.782Z,23.93
2022-08-07T13:22:53.790Z,24.14
2022-08-07T13:25:34.476Z,24.38
2022-08-07T13:28:14.363Z,24.64
2022-08-07T13:31:01.519Z,25.04
2022-08-07T13:34:32.907Z,25.34
2022-08-07T13:36:32.668Z,25.46
2022-08-07T13:39:12.960Z,25.58
2022-08-07T13:41:58.794Z,25.68
2022-08-07T13:44:34.613Z,25.88
2022-08-07T13:47:09.321Z,25.95
2022-08-07T13:50:35.200Z,25.91
2022-08-07T13:52:39.658Z,25.72
2022-08-07T13:55:19.724Z,25.82
2022-08-07T13:58:28.067Z,25.95
2022-08-07T14:01:09.376Z,26.03
2022-08-07T14:04:05.355Z,25.95
2022-08-07T14:06:33.015Z,26.13
2022-08-07T14:09:04.702Z,26.31
2022-08-07T14:11:53.630Z,26.56
2022-08-07T14:14:39.953Z,26.60
2022-08-07T14:17:13.104Z,26.74
2022-08-07T14:20:39.720Z,26.72
2022-08-07T14:23:00.166Z,26.68
2022-08-07T14:25:39.149Z,26.69
2022-08-07T14:28:13.618Z,26.78
2022-08-07T14:30:52.225Z,26.54
2022-08-07T14:33:22.383Z,26.51
2022-08-07T14:35:56.347Z,26.52
2022-08-07T14:38:31.260Z,26.67
2022-08-07T14:41:04.346Z,26.84
2022-08-07T14:43:58.833Z,26.90
2022-08-07T14:46:32.011Z,26.71
2022-08-07T14:49:55.782Z,26.43
2022-08-07T14:54:43.364Z,26.10
2022-08-07T14:57:15.046Z,26.07
2022-08-07T15:00:07.021Z,26.15
2022-08-07T15:02:37.302Z,26.20
2022-08-07T15:05:26.731Z,26.05
2022-08-07T15:07:56.477Z,26.07
2022-08-07T15:10:29.898Z,25.80
2022-08-07T15:15:54.431Z,25.48
2022-08-07T15:18:35.770Z,25.39
2022-08-07T15:21:08.193Z,25.27
2022-08-07T15:25:15.977Z,25.18
2022-08-07T15:26:56.823Z,24.99
2022-08-07T15:30:08.968Z,24.86
2022-08-07T15:32:39.879Z,24.84
2022-08-07T15:35:17.930Z,24.79
2022-08-07T15:38:17.796Z,24.90
2022-08-07T15:40:48.907Z,24.91
2022-08-07T15:43:55.926Z,24.86
2022-08-07T15:46:31.564Z,24.97
2022-08-07T15:52:02.862Z,24.98
2022-08-07T15:54:39.528Z,25.11
2022-08-07T15:57:28.248Z,25.19
2022-08-07T16:00:04.103Z,24.91
2022-08-07T16:02:41.264Z,24.72
2022-08-07T16:05:15.771Z,24.50
2022-08-07T16:08:31.978Z,24.36
2022-08-07T16:10:37.511Z,24.46
2022-08-07T16:13:57.854Z,24.43
2022-08-07T16:16:47.682Z,24.35
2022-08-07T16:19:59.003Z,24.18
2022-08-07T16:23:05.291Z,23.93
2022-08-07T16:25:55.394Z,23.63
2022-08-07T16:30:07.140Z,23.81
2022-08-07T16:31:51.923Z,23.83
2022-08-07T16:34:33.426Z,23.90
2022-08-07T16:38:05.857Z,23.82
2022-08-07T16:41:10.831Z,23.76
2022-08-07T16:44:46.367Z,23.78
2022-08-07T16:47:45.479Z,23.71
2022-08-07T16:50:52.698Z,23.76
2022-08-07T16:54:02.476Z,23.63
2022-08-07T16:56:37.512Z,23.69
2022-08-07T16:59:17.374Z,23.71
2022-08-07T17:02:03.182Z,23.77
2022-08-07T17:04:57.674Z,23.62
2022-08-07T17:07:55.214Z,23.55
2022-08-07T17:10:38.346Z,23.55
2022-08-07T17:13:40.341Z,23.54
2022-08-07T17:16:27.022Z,23.50
2022-08-07T17:19:04.959Z,23.49
2022-08-07T17:21:52.314Z,23.39
2022-08-07T17:24:47.113Z,23.37
2022-08-07T17:27:22.217Z,23.42
2022-08-07T17:30:15.891Z,23.43
2022-08-07T17:34:10.229Z,23.36
2022-08-07T17:36:03.759Z,23.28
2022-08-07T17:38:36.892Z,23.28
2022-08-07T17:42:02.938Z,23.27
2022-08-07T17:44:15.543Z,23.23
2022-08-07T17:47:08.512Z,23.17
2022-08-07T17:49:54.801Z,23.11
2022-08-07T17:52:35.833Z,23.06
2022-08-07T17:55:12.614Z,23.07
2022-08-07T17:57:58.540Z,23.03
2022-08-07T18:00:34.646Z,23.00
2022-08-07T18:03:21.721Z,22.97
2022-08-07T18:06:09.384Z,22.95
2022-08-07T18:09:01.968Z,22.88
2022-08-07T18:12:16.843Z,22.88
2022-08-07T18:14:37.531Z,22.81
2022-08-07T18:18:46.656Z,22.76
2022-08-07T18:21:10.312Z,22.65
2022-08-07T18:23:42.335Z,22.62
2022-08-07T18:26:02.336Z,22.42
2022-08-07T18:28:58.545Z,22.48
2022-08-07T18:31:50.346Z,22.43
2022-08-07T18:34:40.776Z,22.34
2022-08-07T18:38:55.755Z,22.25
2022-08-07T18:40:43.850Z,22.17
2022-08-07T18:43:36.908Z,22.09
2022-08-07T18:46:27.292Z,22.00
2022-08-07T18:50:30.132Z,21.97
2022-08-07T18:52:34.908Z,21.95
2022-08-07T18:55:40.778Z,21.86
2022-08-07T18:58:30.841Z,21.79
2022-08-07T19:02:31.630Z,21.67
2022-08-07T19:04:06.480Z,21.60
2022-08-07T19:06:51.389Z,21.52
2022-08-07T19:09:57.510Z,21.50
2022-08-07T19:12:27.079Z,21.47
2022-08-07T19:16:03.087Z,21.46
2022-08-07T19:18:13.669Z,21.41
2022-08-07T19:21:08.898Z,21.34
2022-08-07T19:23:58.789Z,21.26
2022-08-07T19:26:55.599Z,21.19
2022-08-07T19:31:04.083Z,21.10
2022-08-07T19:32:28.919Z,21.04
2022-08-07T19:35:12.586Z,20.99
2022-08-07T19:37:56.562Z,20.89
2022-08-07T19:40:30.969Z,20.93
2022-08-07T19:43:02.972Z,20.90
2022-08-07T19:46:07.860Z,20.87
2022-08-07T19:48:43.078Z,20.82
2022-08-07T19:51:20.626Z,20.60
2022-08-07T19:54:44.263Z,20.73
2022-08-07T19:58:01.509Z,20.68
2022-08-07T19:59:46.996Z,20.62
2022-08-07T20:02:30.066Z,20.58
2022-08-07T20:05:07.956Z,20.55
2022-08-07T20:07:46.317Z,20.41
2022-08-07T20:10:36.033Z,20.48
2022-08-07T20:13:22.534Z,20.43
2022-08-07T20:15:53.796Z,20.36
2022-08-07T20:18:34.407Z,20.21
2022-08-07T20:21:14.571Z,20.25
2022-08-07T20:23:54.347Z,20.17
2022-08-07T20:26:29.963Z,20.11
2022-08-07T20:29:47.031Z,20.06
2022-08-07T20:32:02.271Z,19.97
2022-08-07T20:34:50.210Z,19.92
2022-08-07T20:37:26.318Z,19.83
2022-08-07T20:40:03.871Z,19.79
2022-08-07T20:42:34.505Z,19.72
2022-08-07T20:45:33.297Z,19.68
2022-08-07T20:47:58.306Z,19.63
2022-08-07T20:50:30.443Z,19.57
2022-08-07T20:53:00.504Z,19.53
2022-08-07T20:55:32.282Z,19.50
2022-08-07T20:58:09.093Z,19.43
2022-08-07T21:00:53.479Z,19.39
2022-08-07T21:03:25.910Z,19.37
2022-08-07T21:06:12.375Z,19.35
2022-08-07T21:09:01.081Z,19.30
2022-08-07T21:11:46.184Z,19.27
2022-08-07T21:14:32.729Z,19.23
2022-08-07T21:18:03.076Z,19.19
2022-08-07T21:20:05.026Z,19.17
2022-08-07T21:22:35.587Z,19.16
2022-08-07T21:25:14.763Z,19.12
2022-08-07T21:27:54.155Z,19.07
2022-08-07T21:30:38.740Z,19.02
2022-08-07T21:33:16.278Z,18.96
2022-08-07T21:36:05.591Z,18.97
2022-08-07T21:38:54.418Z,18.93
2022-08-07T21:41:38.193Z,18.88
2022-08-07T21:44:34.432Z,18.83
2022-08-07T21:47:12.291Z,18.78
2022-08-07T21:50:00.896Z,18.74
2022-08-07T21:52:40.785Z,18.69
2022-08-07T21:55:29.809Z,18.65
2022-08-07T21:58:12.239Z,18.59
2022-08-07T22:00:54.154Z,18.52
2022-08-07T22:03:31.452Z,18.47
2022-08-07T22:06:05.147Z,18.45
2022-08-07T22:08:40.269Z,18.40
2022-08-07T22:11:17.562Z,18.33
2022-08-07T22:13:55.065Z,18.33
2022-08-07T22:16:45.429Z,18.28
2022-08-07T22:19:23.560Z,18.14
2022-08-07T22:22:20.884Z,18.18
2022-08-07T22:25:03.175Z,18.13
2022-08-07T22:28:03.142Z,18.11
2022-08-07T22:30:37.122Z,18.03
2022-08-07T22:33:18.246Z,17.93
2022-08-07T22:36:13.575Z,17.93
2022-08-07T22:38:49.809Z,17.91
2022-08-07T22:41:29.213Z,17.90
2022-08-07T22:44:22.414Z,17.85
2022-08-07T22:47:33.185Z,17.80
2022-08-07T22:50:29.017Z,17.75
2022-08-07T22:53:26.853Z,17.68
2022-08-07T22:56:19.988Z,17.65
2022-08-07T22:59:26.256Z,17.61
2022-08-07T23:02:02.348Z,17.55
2022-08-07T23:04:57.044Z,17.50
2022-08-07T23:07:43.005Z,17.47
2022-08-07T23:10:37.747Z,17.43
2022-08-07T23:13:49.151Z,17.38
2022-08-07T23:16:44.607Z,17.33
2022-08-07T23:19:58.582Z,17.31
2022-08-07T23:22:48.707Z,17.26
2022-08-07T23:25:34.016Z,17.18
2022-08-07T23:28:29.047Z,17.10
2022-08-07T23:31:13.855Z,17.12
2022-08-07T23:34:33.398Z,17.07
2022-08-07T23:37:20.512Z,17.03
2022-08-07T23:40:07.576Z,16.96
2022-08-07T23:42:47.756Z,16.93
2022-08-07T23:45:33.143Z,16.87
2022-08-07T23:48:47.752Z,16.83
2022-08-07T23:53:00.971Z,16.83
2022-08-07T23:54:36.305Z,16.78
2022-08-07T23:57:18.777Z,16.64
